sensor_id;sensor_type;location;lat;lon;timestamp;P1;durP1;ratioP1;P2;durP2;ratioP2
27794;SDS011;15176;50.844;4.412;2023-08-06T00:00:38;4.32;;;1.50;;
27794;SDS011;15176;50.844;4.412;2023-08-06T00:03:04;4.13;;;1.58;;
27794;SDS011;15176;50.844;4.412;2023-08-06T00:05:30;9.27;;;1.50;;
27794;SDS011;15176;50.844;4.412;2023-08-06T00:07:55;4.22;;;1.40;;
27794;SDS011;15176;50.844;4.412;2023-08-06T00:10:21;7.55;;;2.30;;
27794;SDS011;15176;50.844;4.412;2023-08-06T00:12:47;5.15;;;1.92;;
27794;SDS011;15176;50.844;4.412;2023-08-06T00:15:13;4.82;;;1.95;;
27794;SDS011;15176;50.844;4.412;2023-08-06T00:17:39;5.10;;;1.92;;
27794;SDS011;15176;50.844;4.412;2023-08-06T00:20:05;5.00;;;1.83;;
27794;SDS011;15176;50.844;4.412;2023-08-06T00:22:32;7.50;;;2.30;;
27794;SDS011;15176;50.844;4.412;2023-08-06T00:24:59;8.48;;;2.38;;
27794;SDS011;15176;50.844;4.412;2023-08-06T00:27:24;5.30;;;2.35;;
27794;SDS011;15176;50.844;4.412;2023-08-06T00:29:51;6.45;;;2.40;;
27794;SDS011;15176;50.844;4.412;2023-08-06T00:32:17;7.88;;;2.63;;
27794;SDS011;15176;50.844;4.412;2023-08-06T00:34:43;9.15;;;2.60;;
27794;SDS011;15176;50.844;4.412;2023-08-06T00:37:09;7.80;;;3.35;;
27794;SDS011;15176;50.844;4.412;2023-08-06T00:39:35;7.13;;;3.17;;
27794;SDS011;15176;50.844;4.412;2023-08-06T00:42:00;8.38;;;3.28;;
27794;SDS011;15176;50.844;4.412;2023-08-06T00:44:26;7.30;;;3.17;;
27794;SDS011;15176;50.844;4.412;2023-08-06T00:46:52;10.80;;;3.70;;
27794;SDS011;15176;50.844;4.412;2023-08-06T00:49:18;10.52;;;3.97;;
27794;SDS011;15176;50.844;4.412;2023-08-06T00:51:44;7.80;;;3.70;;
27794;SDS011;15176;50.844;4.412;2023-08-06T00:54:09;9.15;;;4.07;;
27794;SDS011;15176;50.844;4.412;2023-08-06T00:56:35;7.68;;;4.28;;
27794;SDS011;15176;50.844;4.412;2023-08-06T00:59:02;9.10;;;4.32;;
27794;SDS011;15176;50.844;4.412;2023-08-06T01:01:31;8.13;;;4.15;;
27794;SDS011;15176;50.844;4.412;2023-08-06T01:03:57;9.93;;;4.80;;
27794;SDS011;15176;50.844;4.412;2023-08-06T01:06:45;8.23;;;4.13;;
27794;SDS011;15176;50.844;4.412;2023-08-06T01:12:06;10.00;;;2.95;;
27794;SDS011;15176;50.844;4.412;2023-08-06T01:17:13;11.68;;;5.55;;
27794;SDS011;15176;50.844;4.412;2023-08-06T01:19:39;10.27;;;5.70;;
27794;SDS011;15176;50.844;4.412;2023-08-06T01:22:05;9.18;;;5.15;;
27794;SDS011;15176;50.844;4.412;2023-08-06T01:24:30;12.40;;;6.05;;
27794;SDS011;15176;50.844;4.412;2023-08-06T01:27:03;11.93;;;5.93;;
27794;SDS011;15176;50.844;4.412;2023-08-06T01:29:41;10.13;;;5.90;;
27794;SDS011;15176;50.844;4.412;2023-08-06T01:32:12;10.23;;;5.28;;
27794;SDS011;15176;50.844;4.412;2023-08-06T01:34:41;10.43;;;5.25;;
27794;SDS011;15176;50.844;4.412;2023-08-06T01:37:09;14.00;;;5.30;;
27794;SDS011;15176;50.844;4.412;2023-08-06T01:39:36;14.73;;;5.47;;
27794;SDS011;15176;50.844;4.412;2023-08-06T01:42:02;13.43;;;5.80;;
27794;SDS011;15176;50.844;4.412;2023-08-06T01:44:27;11.68;;;6.03;;
27794;SDS011;15176;50.844;4.412;2023-08-06T01:46:54;10.82;;;4.20;;
27794;SDS011;15176;50.844;4.412;2023-08-06T01:49:20;11.60;;;5.53;;
27794;SDS011;15176;50.844;4.412;2023-08-06T01:51:46;11.80;;;5.68;;
27794;SDS011;15176;50.844;4.412;2023-08-06T01:54:11;12.00;;;5.60;;
27794;SDS011;15176;50.844;4.412;2023-08-06T01:56:37;11.38;;;4.82;;
27794;SDS011;15176;50.844;4.412;2023-08-06T01:59:03;10.32;;;4.80;;
27794;SDS011;15176;50.844;4.412;2023-08-06T02:01:28;12.85;;;4.40;;
27794;SDS011;15176;50.844;4.412;2023-08-06T02:03:54;10.35;;;4.68;;
27794;SDS011;15176;50.844;4.412;2023-08-06T02:06:19;9.43;;;4.05;;
27794;SDS011;15176;50.844;4.412;2023-08-06T02:08:45;10.55;;;3.97;;
27794;SDS011;15176;50.844;4.412;2023-08-06T02:11:11;12.20;;;3.78;;
27794;SDS011;15176;50.844;4.412;2023-08-06T02:13:37;11.13;;;4.57;;
27794;SDS011;15176;50.844;4.412;2023-08-06T02:16:03;16.42;;;3.65;;
27794;SDS011;15176;50.844;4.412;2023-08-06T02:18:31;7.10;;;3.15;;
27794;SDS011;15176;50.844;4.412;2023-08-06T02:20:57;6.80;;;3.10;;
27794;SDS011;15176;50.844;4.412;2023-08-06T02:23:24;13.18;;;3.03;;
27794;SDS011;15176;50.844;4.412;2023-08-06T02:28:25;9.32;;;3.08;;
27794;SDS011;15176;50.844;4.412;2023-08-06T02:30:51;7.45;;;2.10;;
27794;SDS011;15176;50.844;4.412;2023-08-06T02:33:17;9.07;;;2.40;;
27794;SDS011;15176;50.844;4.412;2023-08-06T02:35:42;10.50;;;2.90;;
27794;SDS011;15176;50.844;4.412;2023-08-06T02:38:08;5.18;;;2.03;;
27794;SDS011;15176;50.844;4.412;2023-08-06T02:40:34;6.30;;;2.35;;
27794;SDS011;15176;50.844;4.412;2023-08-06T02:43:00;5.82;;;1.70;;
27794;SDS011;15176;50.844;4.412;2023-08-06T02:45:25;6.75;;;2.20;;
27794;SDS011;15176;50.844;4.412;2023-08-06T02:47:51;6.05;;;2.00;;
27794;SDS011;15176;50.844;4.412;2023-08-06T02:50:17;8.75;;;2.35;;
27794;SDS011;15176;50.844;4.412;2023-08-06T02:52:42;8.43;;;1.98;;
27794;SDS011;15176;50.844;4.412;2023-08-06T02:55:08;5.93;;;2.08;;
27794;SDS011;15176;50.844;4.412;2023-08-06T02:57:35;15.20;;;2.47;;
27794;SDS011;15176;50.844;4.412;2023-08-06T03:00:01;9.63;;;2.38;;
27794;SDS011;15176;50.844;4.412;2023-08-06T03:02:27;15.15;;;2.60;;
27794;SDS011;15176;50.844;4.412;2023-08-06T03:04:53;8.77;;;2.03;;
27794;SDS011;15176;50.844;4.412;2023-08-06T03:07:18;6.25;;;1.80;;
27794;SDS011;15176;50.844;4.412;2023-08-06T03:09:44;10.43;;;2.50;;
27794;SDS011;15176;50.844;4.412;2023-08-06T03:12:10;11.20;;;2.60;;
27794;SDS011;15176;50.844;4.412;2023-08-06T03:14:37;11.65;;;3.15;;
27794;SDS011;15176;50.844;4.412;2023-08-06T03:17:03;5.47;;;2.33;;
27794;SDS011;15176;50.844;4.412;2023-08-06T03:19:29;6.82;;;2.38;;
27794;SDS011;15176;50.844;4.412;2023-08-06T03:21:55;12.73;;;3.45;;
27794;SDS011;15176;50.844;4.412;2023-08-06T03:24:20;9.05;;;3.95;;
27794;SDS011;15176;50.844;4.412;2023-08-06T03:26:46;18.25;;;5.57;;
27794;SDS011;15176;50.844;4.412;2023-08-06T03:29:12;15.23;;;5.88;;
27794;SDS011;15176;50.844;4.412;2023-08-06T03:31:37;14.40;;;7.40;;
27794;SDS011;15176;50.844;4.412;2023-08-06T03:34:03;18.17;;;9.10;;
27794;SDS011;15176;50.844;4.412;2023-08-06T03:36:29;18.05;;;9.32;;
27794;SDS011;15176;50.844;4.412;2023-08-06T03:38:54;19.13;;;9.48;;
27794;SDS011;15176;50.844;4.412;2023-08-06T03:41:20;20.65;;;11.50;;
27794;SDS011;15176;50.844;4.412;2023-08-06T03:43:46;19.30;;;10.65;;
27794;SDS011;15176;50.844;4.412;2023-08-06T03:46:11;16.70;;;10.00;;
27794;SDS011;15176;50.844;4.412;2023-08-06T03:48:37;15.50;;;9.43;;
27794;SDS011;15176;50.844;4.412;2023-08-06T03:51:03;12.00;;;7.72;;
27794;SDS011;15176;50.844;4.412;2023-08-06T03:53:28;12.25;;;7.20;;
27794;SDS011;15176;50.844;4.412;2023-08-06T03:55:54;11.07;;;7.65;;
27794;SDS011;15176;50.844;4.412;2023-08-06T03:58:24;10.35;;;6.25;;
27794;SDS011;15176;50.844;4.412;2023-08-06T04:00:57;8.48;;;5.30;;
27794;SDS011;15176;50.844;4.412;2023-08-06T04:03:24;7.68;;;4.72;;
27794;SDS011;15176;50.844;4.412;2023-08-06T04:05:50;7.68;;;4.65;;
27794;SDS011;15176;50.844;4.412;2023-08-06T04:08:16;7.47;;;3.72;;
27794;SDS011;15176;50.844;4.412;2023-08-06T04:10:41;7.25;;;3.28;;
27794;SDS011;15176;50.844;4.412;2023-08-06T04:13:07;4.57;;;2.05;;
27794;SDS011;15176;50.844;4.412;2023-08-06T04:15:33;3.45;;;1.35;;
27794;SDS011;15176;50.844;4.412;2023-08-06T04:17:59;2.58;;;1.10;;
27794;SDS011;15176;50.844;4.412;2023-08-06T04:20:24;2.03;;;0.95;;
27794;SDS011;15176;50.844;4.412;2023-08-06T04:22:50;4.43;;;0.70;;
27794;SDS011;15176;50.844;4.412;2023-08-06T04:25:17;1.88;;;0.70;;
27794;SDS011;15176;50.844;4.412;2023-08-06T04:27:46;1.40;;;0.70;;
27794;SDS011;15176;50.844;4.412;2023-08-06T04:30:12;1.92;;;0.80;;
27794;SDS011;15176;50.844;4.412;2023-08-06T04:32:39;2.20;;;0.90;;
27794;SDS011;15176;50.844;4.412;2023-08-06T04:35:05;2.90;;;1.10;;
27794;SDS011;15176;50.844;4.412;2023-08-06T04:37:31;3.67;;;1.30;;
27794;SDS011;15176;50.844;4.412;2023-08-06T04:39:56;3.70;;;1.60;;
27794;SDS011;15176;50.844;4.412;2023-08-06T04:42:22;8.77;;;1.95;;
27794;SDS011;15176;50.844;4.412;2023-08-06T04:44:48;4.65;;;1.60;;
27794;SDS011;15176;50.844;4.412;2023-08-06T04:47:13;5.95;;;2.00;;
27794;SDS011;15176;50.844;4.412;2023-08-06T04:49:39;5.28;;;1.95;;
27794;SDS011;15176;50.844;4.412;2023-08-06T04:52:05;5.95;;;1.90;;
27794;SDS011;15176;50.844;4.412;2023-08-06T04:54:31;7.22;;;2.15;;
27794;SDS011;15176;50.844;4.412;2023-08-06T04:56:56;4.80;;;2.33;;
27794;SDS011;15176;50.844;4.412;2023-08-06T04:59:22;7.15;;;2.08;;
27794;SDS011;15176;50.844;4.412;2023-08-06T05:01:48;7.82;;;2.63;;
27794;SDS011;15176;50.844;4.412;2023-08-06T05:04:13;6.20;;;2.40;;
27794;SDS011;15176;50.844;4.412;2023-08-06T05:06:39;5.85;;;2.40;;
27794;SDS011;15176;50.844;4.412;2023-08-06T05:09:06;7.70;;;2.60;;
27794;SDS011;15176;50.844;4.412;2023-08-06T05:11:31;6.63;;;2.50;;
27794;SDS011;15176;50.844;4.412;2023-08-06T05:13:57;7.13;;;3.13;;
27794;SDS011;15176;50.844;4.412;2023-08-06T05:16:23;5.55;;;2.65;;
27794;SDS011;15176;50.844;4.412;2023-08-06T05:18:49;9.23;;;3.00;;
27794;SDS011;15176;50.844;4.412;2023-08-06T05:21:14;8.32;;;3.25;;
27794;SDS011;15176;50.844;4.412;2023-08-06T05:23:41;6.57;;;2.88;;
27794;SDS011;15176;50.844;4.412;2023-08-06T05:26:07;6.60;;;3.00;;
27794;SDS011;15176;50.844;4.412;2023-08-06T05:28:34;9.77;;;2.80;;
27794;SDS011;15176;50.844;4.412;2023-08-06T05:31:02;10.35;;;2.88;;
27794;SDS011;15176;50.844;4.412;2023-08-06T05:33:29;8.68;;;2.63;;
27794;SDS011;15176;50.844;4.412;2023-08-06T05:35:55;9.82;;;3.30;;
27794;SDS011;15176;50.844;4.412;2023-08-06T05:38:21;10.75;;;3.72;;
27794;SDS011;15176;50.844;4.412;2023-08-06T05:40:47;9.80;;;3.33;;
27794;SDS011;15176;50.844;4.412;2023-08-06T05:43:13;9.13;;;4.05;;
27794;SDS011;15176;50.844;4.412;2023-08-06T05:45:39;12.05;;;4.43;;
27794;SDS011;15176;50.844;4.412;2023-08-06T05:48:10;14.32;;;3.67;;
27794;SDS011;15176;50.844;4.412;2023-08-06T05:50:36;11.73;;;3.47;;
27794;SDS011;15176;50.844;4.412;2023-08-06T05:53:01;11.25;;;3.40;;
27794;SDS011;15176;50.844;4.412;2023-08-06T05:55:27;10.10;;;3.25;;
27794;SDS011;15176;50.844;4.412;2023-08-06T05:57:53;11.85;;;3.22;;
27794;SDS011;15176;50.844;4.412;2023-08-06T06:00:20;9.38;;;3.30;;
27794;SDS011;15176;50.844;4.412;2023-08-06T06:02:47;11.18;;;2.90;;
27794;SDS011;15176;50.844;4.412;2023-08-06T06:05:12;7.05;;;2.80;;
27794;SDS011;15176;50.844;4.412;2023-08-06T06:07:38;9.20;;;3.33;;
27794;SDS011;15176;50.844;4.412;2023-08-06T06:10:04;8.55;;;3.35;;
27794;SDS011;15176;50.844;4.412;2023-08-06T06:12:30;13.15;;;3.90;;
27794;SDS011;15176;50.844;4.412;2023-08-06T06:14:56;12.82;;;3.70;;
27794;SDS011;15176;50.844;4.412;2023-08-06T06:17:21;8.55;;;2.75;;
27794;SDS011;15176;50.844;4.412;2023-08-06T06:19:47;10.45;;;3.50;;
27794;SDS011;15176;50.844;4.412;2023-08-06T06:22:13;14.95;;;4.10;;
27794;SDS011;15176;50.844;4.412;2023-08-06T06:24:39;8.88;;;3.10;;
27794;SDS011;15176;50.844;4.412;2023-08-06T06:27:05;9.95;;;2.90;;
27794;SDS011;15176;50.844;4.412;2023-08-06T06:29:31;9.70;;;3.58;;
27794;SDS011;15176;50.844;4.412;2023-08-06T06:31:56;14.18;;;3.70;;
27794;SDS011;15176;50.844;4.412;2023-08-06T06:34:22;11.15;;;3.95;;
27794;SDS011;15176;50.844;4.412;2023-08-06T06:36:48;10.00;;;3.00;;
27794;SDS011;15176;50.844;4.412;2023-08-06T06:39:13;15.38;;;3.65;;
27794;SDS011;15176;50.844;4.412;2023-08-06T06:41:40;10.15;;;3.50;;
27794;SDS011;15176;50.844;4.412;2023-08-06T06:44:06;8.63;;;2.88;;
27794;SDS011;15176;50.844;4.412;2023-08-06T06:46:32;9.23;;;3.70;;
27794;SDS011;15176;50.844;4.412;2023-08-06T06:48:58;12.07;;;3.20;;
27794;SDS011;15176;50.844;4.412;2023-08-06T06:51:23;12.07;;;3.65;;
27794;SDS011;15176;50.844;4.412;2023-08-06T06:53:49;9.52;;;3.67;;
27794;SDS011;15176;50.844;4.412;2023-08-06T06:56:14;15.95;;;3.75;;
27794;SDS011;15176;50.844;4.412;2023-08-06T06:58:40;12.90;;;3.80;;
27794;SDS011;15176;50.844;4.412;2023-08-06T07:01:06;9.15;;;3.35;;
27794;SDS011;15176;50.844;4.412;2023-08-06T07:03:33;12.38;;;3.60;;
27794;SDS011;15176;50.844;4.412;2023-08-06T07:06:00;15.20;;;3.30;;
27794;SDS011;15176;50.844;4.412;2023-08-06T07:08:25;10.55;;;2.72;;
27794;SDS011;15176;50.844;4.412;2023-08-06T07:11:02;6.75;;;2.67;;
27794;SDS011;15176;50.844;4.412;2023-08-06T07:13:29;7.63;;;2.53;;
27794;SDS011;15176;50.844;4.412;2023-08-06T07:15:55;11.57;;;2.97;;
27794;SDS011;15176;50.844;4.412;2023-08-06T07:18:21;9.25;;;2.38;;
27794;SDS011;15176;50.844;4.412;2023-08-06T07:20:48;9.98;;;2.65;;
27794;SDS011;15176;50.844;4.412;2023-08-06T07:23:18;9.00;;;2.13;;
27794;SDS011;15176;50.844;4.412;2023-08-06T07:25:48;9.82;;;2.10;;
27794;SDS011;15176;50.844;4.412;2023-08-06T07:28:14;9.40;;;1.77;;
27794;SDS011;15176;50.844;4.412;2023-08-06T07:30:42;11.65;;;2.10;;
27794;SDS011;15176;50.844;4.412;2023-08-06T07:33:08;12.90;;;1.42;;
27794;SDS011;15176;50.844;4.412;2023-08-06T07:35:35;12.02;;;2.10;;
27794;SDS011;15176;50.844;4.412;2023-08-06T07:38:01;9.75;;;2.10;;
27794;SDS011;15176;50.844;4.412;2023-08-06T07:40:27;6.93;;;1.60;;
27794;SDS011;15176;50.844;4.412;2023-08-06T07:42:53;11.68;;;1.52;;
27794;SDS011;15176;50.844;4.412;2023-08-06T07:45:19;5.75;;;1.45;;
27794;SDS011;15176;50.844;4.412;2023-08-06T07:47:44;10.23;;;1.52;;
27794;SDS011;15176;50.844;4.412;2023-08-06T07:50:10;7.57;;;1.38;;
27794;SDS011;15176;50.844;4.412;2023-08-06T07:52:36;7.20;;;1.33;;
27794;SDS011;15176;50.844;4.412;2023-08-06T07:55:01;10.90;;;1.40;;
27794;SDS011;15176;50.844;4.412;2023-08-06T07:57:30;9.55;;;1.45;;
27794;SDS011;15176;50.844;4.412;2023-08-06T07:59:56;11.60;;;1.60;;
27794;SDS011;15176;50.844;4.412;2023-08-06T08:02:22;11.35;;;1.95;;
27794;SDS011;15176;50.844;4.412;2023-08-06T08:04:48;13.00;;;1.88;;
27794;SDS011;15176;50.844;4.412;2023-08-06T08:07:14;11.00;;;1.73;;
27794;SDS011;15176;50.844;4.412;2023-08-06T08:09:39;10.52;;;1.50;;
27794;SDS011;15176;50.844;4.412;2023-08-06T08:12:05;8.95;;;1.52;;
27794;SDS011;15176;50.844;4.412;2023-08-06T08:14:31;9.32;;;1.80;;
27794;SDS011;15176;50.844;4.412;2023-08-06T08:17:03;7.18;;;1.40;;
27794;SDS011;15176;50.844;4.412;2023-08-06T08:19:29;7.03;;;1.30;;
27794;SDS011;15176;50.844;4.412;2023-08-06T08:21:55;8.02;;;1.52;;
27794;SDS011;15176;50.844;4.412;2023-08-06T08:24:21;8.23;;;1.65;;
27794;SDS011;15176;50.844;4.412;2023-08-06T08:26:49;6.55;;;1.50;;
27794;SDS011;15176;50.844;4.412;2023-08-06T08:29:15;9.38;;;1.98;;
27794;SDS011;15176;50.844;4.412;2023-08-06T08:31:41;7.20;;;1.42;;
27794;SDS011;15176;50.844;4.412;2023-08-06T08:34:07;5.50;;;1.40;;
27794;SDS011;15176;50.844;4.412;2023-08-06T08:36:33;10.60;;;1.90;;
27794;SDS011;15176;50.844;4.412;2023-08-06T08:38:58;9.27;;;1.90;;
27794;SDS011;15176;50.844;4.412;2023-08-06T08:41:24;9.85;;;1.70;;
27794;SDS011;15176;50.844;4.412;2023-08-06T08:43:52;10.82;;;2.00;;
27794;SDS011;15176;50.844;4.412;2023-08-06T08:46:19;9.32;;;1.90;;
27794;SDS011;15176;50.844;4.412;2023-08-06T08:48:45;10.48;;;1.85;;
27794;SDS011;15176;50.844;4.412;2023-08-06T08:51:11;12.00;;;2.33;;
27794;SDS011;15176;50.844;4.412;2023-08-06T08:53:38;10.35;;;1.63;;
27794;SDS011;15176;50.844;4.412;2023-08-06T08:56:07;9.23;;;1.90;;
27794;SDS011;15176;50.844;4.412;2023-08-06T08:58:33;10.73;;;1.70;;
27794;SDS011;15176;50.844;4.412;2023-08-06T09:00:58;16.45;;;2.20;;
27794;SDS011;15176;50.844;4.412;2023-08-06T09:03:26;11.02;;;2.00;;
27794;SDS011;15176;50.844;4.412;2023-08-06T09:05:53;9.95;;;2.00;;
27794;SDS011;15176;50.844;4.412;2023-08-06T09:08:24;10.30;;;1.50;;
27794;SDS011;15176;50.844;4.412;2023-08-06T09:10:55;8.13;;;1.95;;
27794;SDS011;15176;50.844;4.412;2023-08-06T09:13:21;8.40;;;1.55;;
27794;SDS011;15176;50.844;4.412;2023-08-06T09:15:49;9.45;;;1.50;;
27794;SDS011;15176;50.844;4.412;2023-08-06T09:18:15;11.43;;;1.88;;
27794;SDS011;15176;50.844;4.412;2023-08-06T09:20:52;11.35;;;1.98;;
27794;SDS011;15176;50.844;4.412;2023-08-06T09:23:18;9.25;;;2.17;;
27794;SDS011;15176;50.844;4.412;2023-08-06T09:25:45;11.38;;;1.95;;
27794;SDS011;15176;50.844;4.412;2023-08-06T09:28:12;9.88;;;2.10;;
27794;SDS011;15176;50.844;4.412;2023-08-06T09:30:38;11.82;;;1.70;;
27794;SDS011;15176;50.844;4.412;2023-08-06T09:33:08;13.68;;;2.30;;
27794;SDS011;15176;50.844;4.412;2023-08-06T09:35:35;8.75;;;2.00;;
27794;SDS011;15176;50.844;4.412;2023-08-06T09:38:07;8.43;;;2.10;;
27794;SDS011;15176;50.844;4.412;2023-08-06T09:40:35;9.45;;;2.10;;
27794;SDS011;15176;50.844;4.412;2023-08-06T09:43:01;9.52;;;2.10;;
27794;SDS011;15176;50.844;4.412;2023-08-06T09:45:28;11.80;;;2.20;;
27794;SDS011;15176;50.844;4.412;2023-08-06T09:47:57;11.25;;;1.85;;
27794;SDS011;15176;50.844;4.412;2023-08-06T09:50:23;11.68;;;2.35;;
27794;SDS011;15176;50.844;4.412;2023-08-06T09:52:57;10.63;;;2.50;;
27794;SDS011;15176;50.844;4.412;2023-08-06T09:55:24;8.98;;;2.15;;
27794;SDS011;15176;50.844;4.412;2023-08-06T09:57:51;8.27;;;2.05;;
27794;SDS011;15176;50.844;4.412;2023-08-06T10:00:18;11.93;;;2.45;;
27794;SDS011;15176;50.844;4.412;2023-08-06T10:02:45;11.18;;;1.90;;
27794;SDS011;15176;50.844;4.412;2023-08-06T10:05:12;12.60;;;2.22;;
27794;SDS011;15176;50.844;4.412;2023-08-06T10:07:38;11.85;;;2.08;;
27794;SDS011;15176;50.844;4.412;2023-08-06T10:10:05;11.00;;;2.30;;
27794;SDS011;15176;50.844;4.412;2023-08-06T10:12:32;8.10;;;2.13;;
27794;SDS011;15176;50.844;4.412;2023-08-06T10:15:01;11.88;;;2.22;;
27794;SDS011;15176;50.844;4.412;2023-08-06T10:17:31;10.57;;;1.75;;
27794;SDS011;15176;50.844;4.412;2023-08-06T10:19:58;15.10;;;2.10;;
27794;SDS011;15176;50.844;4.412;2023-08-06T10:22:25;14.63;;;2.25;;
27794;SDS011;15176;50.844;4.412;2023-08-06T10:24:58;6.43;;;1.30;;
27794;SDS011;15176;50.844;4.412;2023-08-06T10:30:29;7.28;;;1.77;;
27794;SDS011;15176;50.844;4.412;2023-08-06T10:33:01;8.88;;;1.98;;
27794;SDS011;15176;50.844;4.412;2023-08-06T10:35:40;8.45;;;1.42;;
27794;SDS011;15176;50.844;4.412;2023-08-06T10:38:15;8.10;;;1.58;;
27794;SDS011;15176;50.844;4.412;2023-08-06T10:43:29;10.45;;;2.05;;
27794;SDS011;15176;50.844;4.412;2023-08-06T10:45:57;7.07;;;1.67;;
27794;SDS011;15176;50.844;4.412;2023-08-06T10:48:37;10.55;;;2.05;;
27794;SDS011;15176;50.844;4.412;2023-08-06T10:51:08;11.13;;;1.85;;
27794;SDS011;15176;50.844;4.412;2023-08-06T10:53:36;8.23;;;2.60;;
27794;SDS011;15176;50.844;4.412;2023-08-06T10:56:11;7.63;;;1.90;;
27794;SDS011;15176;50.844;4.412;2023-08-06T10:58:42;10.27;;;2.20;;
27794;SDS011;15176;50.844;4.412;2023-08-06T11:01:09;16.42;;;2.20;;
27794;SDS011;15176;50.844;4.412;2023-08-06T11:03:35;10.27;;;2.40;;
27794;SDS011;15176;50.844;4.412;2023-08-06T11:06:02;10.75;;;2.38;;
27794;SDS011;15176;50.844;4.412;2023-08-06T11:08:33;8.50;;;2.03;;
27794;SDS011;15176;50.844;4.412;2023-08-06T11:11:10;8.85;;;1.98;;
27794;SDS011;15176;50.844;4.412;2023-08-06T11:13:40;8.45;;;2.28;;
27794;SDS011;15176;50.844;4.412;2023-08-06T11:16:07;7.53;;;1.90;;
27794;SDS011;15176;50.844;4.412;2023-08-06T11:18:33;13.18;;;2.05;;
27794;SDS011;15176;50.844;4.412;2023-08-06T11:20:59;12.70;;;2.10;;
27794;SDS011;15176;50.844;4.412;2023-08-06T11:23:28;13.43;;;2.35;;
27794;SDS011;15176;50.844;4.412;2023-08-06T11:25:55;8.10;;;2.10;;
27794;SDS011;15176;50.844;4.412;2023-08-06T11:28:22;12.05;;;2.40;;
27794;SDS011;15176;50.844;4.412;2023-08-06T11:30:48;9.98;;;2.15;;
27794;SDS011;15176;50.844;4.412;2023-08-06T11:33:17;10.48;;;1.95;;
27794;SDS011;15176;50.844;4.412;2023-08-06T11:35:47;8.65;;;2.17;;
27794;SDS011;15176;50.844;4.412;2023-08-06T11:38:13;11.27;;;2.10;;
27794;SDS011;15176;50.844;4.412;2023-08-06T11:40:39;10.45;;;1.70;;
27794;SDS011;15176;50.844;4.412;2023-08-06T11:43:07;9.63;;;1.83;;
27794;SDS011;15176;50.844;4.412;2023-08-06T11:45:35;9.77;;;1.80;;
27794;SDS011;15176;50.844;4.412;2023-08-06T11:48:02;8.95;;;2.17;;
27794;SDS011;15176;50.844;4.412;2023-08-06T11:50:30;10.10;;;1.60;;
27794;SDS011;15176;50.844;4.412;2023-08-06T11:52:56;6.57;;;1.55;;
27794;SDS011;15176;50.844;4.412;2023-08-06T11:55:24;9.85;;;1.70;;
27794;SDS011;15176;50.844;4.412;2023-08-06T11:57:50;10.48;;;1.67;;
27794;SDS011;15176;50.844;4.412;2023-08-06T12:00:18;9.75;;;2.20;;
27794;SDS011;15176;50.844;4.412;2023-08-06T12:02:47;7.70;;;1.55;;
27794;SDS011;15176;50.844;4.412;2023-08-06T12:05:19;8.77;;;1.80;;
27794;SDS011;15176;50.844;4.412;2023-08-06T12:10:20;6.65;;;1.67;;
27794;SDS011;15176;50.844;4.412;2023-08-06T12:12:47;7.35;;;1.75;;
27794;SDS011;15176;50.844;4.412;2023-08-06T12:15:13;7.20;;;1.48;;
27794;SDS011;15176;50.844;4.412;2023-08-06T12:17:39;8.93;;;2.10;;
27794;SDS011;15176;50.844;4.412;2023-08-06T12:20:05;8.77;;;2.25;;
27794;SDS011;15176;50.844;4.412;2023-08-06T12:22:32;10.95;;;1.70;;
27794;SDS011;15176;50.844;4.412;2023-08-06T12:25:03;10.65;;;2.60;;
27794;SDS011;15176;50.844;4.412;2023-08-06T12:27:36;11.45;;;1.80;;
27794;SDS011;15176;50.844;4.412;2023-08-06T12:30:03;12.80;;;2.10;;
27794;SDS011;15176;50.844;4.412;2023-08-06T12:32:30;8.88;;;1.70;;
27794;SDS011;15176;50.844;4.412;2023-08-06T12:34:55;8.68;;;1.67;;
27794;SDS011;15176;50.844;4.412;2023-08-06T12:37:21;11.10;;;1.70;;
27794;SDS011;15176;50.844;4.412;2023-08-06T12:39:48;8.60;;;1.80;;
27794;SDS011;15176;50.844;4.412;2023-08-06T12:42:13;14.48;;;2.40;;
27794;SDS011;15176;50.844;4.412;2023-08-06T12:44:39;9.52;;;2.00;;
27794;SDS011;15176;50.844;4.412;2023-08-06T12:47:05;10.80;;;1.70;;
27794;SDS011;15176;50.844;4.412;2023-08-06T12:49:32;7.25;;;1.70;;
27794;SDS011;15176;50.844;4.412;2023-08-06T12:51:58;9.68;;;1.70;;
27794;SDS011;15176;50.844;4.412;2023-08-06T12:54:24;7.43;;;1.50;;
27794;SDS011;15176;50.844;4.412;2023-08-06T12:56:51;9.95;;;1.52;;
27794;SDS011;15176;50.844;4.412;2023-08-06T12:59:17;7.20;;;1.60;;
27794;SDS011;15176;50.844;4.412;2023-08-06T13:01:43;8.25;;;1.80;;
27794;SDS011;15176;50.844;4.412;2023-08-06T13:04:09;9.95;;;1.73;;
27794;SDS011;15176;50.844;4.412;2023-08-06T13:06:35;12.73;;;1.95;;
27794;SDS011;15176;50.844;4.412;2023-08-06T13:09:08;6.93;;;1.75;;
27794;SDS011;15176;50.844;4.412;2023-08-06T13:11:35;6.28;;;1.83;;
27794;SDS011;15176;50.844;4.412;2023-08-06T13:16:35;8.65;;;1.90;;
27794;SDS011;15176;50.844;4.412;2023-08-06T13:19:02;10.07;;;1.98;;
27794;SDS011;15176;50.844;4.412;2023-08-06T13:21:35;9.52;;;1.80;;
27794;SDS011;15176;50.844;4.412;2023-08-06T13:24:27;9.55;;;1.90;;
27794;SDS011;15176;50.844;4.412;2023-08-06T13:26:53;10.75;;;2.10;;
27794;SDS011;15176;50.844;4.412;2023-08-06T13:29:19;12.38;;;2.03;;
27794;SDS011;15176;50.844;4.412;2023-08-06T13:31:45;12.65;;;2.25;;
27794;SDS011;15176;50.844;4.412;2023-08-06T13:34:11;9.55;;;1.80;;
27794;SDS011;15176;50.844;4.412;2023-08-06T13:36:36;11.50;;;2.08;;
27794;SDS011;15176;50.844;4.412;2023-08-06T13:39:02;9.57;;;2.03;;
27794;SDS011;15176;50.844;4.412;2023-08-06T13:41:30;12.20;;;2.22;;
27794;SDS011;15176;50.844;4.412;2023-08-06T13:43:56;7.18;;;1.70;;
27794;SDS011;15176;50.844;4.412;2023-08-06T13:46:21;8.00;;;1.70;;
27794;SDS011;15176;50.844;4.412;2023-08-06T13:48:47;9.60;;;1.90;;
27794;SDS011;15176;50.844;4.412;2023-08-06T13:51:16;9.73;;;1.90;;
27794;SDS011;15176;50.844;4.412;2023-08-06T13:53:42;9.63;;;1.63;;
27794;SDS011;15176;50.844;4.412;2023-08-06T13:56:08;9.02;;;2.00;;
27794;SDS011;15176;50.844;4.412;2023-08-06T13:58:35;10.07;;;1.95;;
27794;SDS011;15176;50.844;4.412;2023-08-06T14:01:01;12.23;;;1.95;;
27794;SDS011;15176;50.844;4.412;2023-08-06T14:03:26;7.45;;;1.38;;
27794;SDS011;15176;50.844;4.412;2023-08-06T14:05:52;7.22;;;1.60;;
27794;SDS011;15176;50.844;4.412;2023-08-06T14:08:20;6.10;;;1.30;;
27794;SDS011;15176;50.844;4.412;2023-08-06T14:10:46;6.10;;;1.10;;
27794;SDS011;15176;50.844;4.412;2023-08-06T14:13:12;7.72;;;1.35;;
27794;SDS011;15176;50.844;4.412;2023-08-06T14:15:38;8.20;;;1.27;;
27794;SDS011;15176;50.844;4.412;2023-08-06T14:18:07;6.28;;;1.27;;
27794;SDS011;15176;50.844;4.412;2023-08-06T14:20:33;6.30;;;1.40;;
27794;SDS011;15176;50.844;4.412;2023-08-06T14:22:59;10.35;;;1.60;;
27794;SDS011;15176;50.844;4.412;2023-08-06T14:25:26;8.75;;;1.48;;
27794;SDS011;15176;50.844;4.412;2023-08-06T14:27:52;7.72;;;1.60;;
27794;SDS011;15176;50.844;4.412;2023-08-06T14:30:17;8.98;;;1.60;;
27794;SDS011;15176;50.844;4.412;2023-08-06T14:32:43;5.75;;;1.30;;
27794;SDS011;15176;50.844;4.412;2023-08-06T14:35:09;12.60;;;1.83;;
27794;SDS011;15176;50.844;4.412;2023-08-06T14:37:34;13.90;;;1.67;;
27794;SDS011;15176;50.844;4.412;2023-08-06T14:40:00;8.23;;;1.50;;
27794;SDS011;15176;50.844;4.412;2023-08-06T14:42:27;11.90;;;1.88;;
27794;SDS011;15176;50.844;4.412;2023-08-06T14:44:53;8.45;;;1.80;;
27794;SDS011;15176;50.844;4.412;2023-08-06T14:47:18;10.32;;;2.50;;
27794;SDS011;15176;50.844;4.412;2023-08-06T14:49:44;11.05;;;1.70;;
27794;SDS011;15176;50.844;4.412;2023-08-06T14:52:10;9.77;;;2.13;;
27794;SDS011;15176;50.844;4.412;2023-08-06T14:54:35;8.35;;;1.80;;
27794;SDS011;15176;50.844;4.412;2023-08-06T14:57:01;10.23;;;1.95;;
27794;SDS011;15176;50.844;4.412;2023-08-06T14:59:27;8.40;;;1.67;;